sensor_id;sensor_type;location;lat;lon;timestamp;P1;durP1;ratioP1;P2;durP2;ratioP2
70337;SDS011;57757;53.198;19.646;2023-04-24T00:00:27;10.10;;;4.50;;
70337;SDS011;57757;53.198;19.646;2023-04-24T00:03:14;10.80;;;4.00;;
70337;SDS011;57757;53.198;19.646;2023-04-24T00:05:42;11.90;;;4.40;;
70337;SDS011;57757;53.198;19.646;2023-04-24T00:08:10;10.20;;;4.30;;
70337;SDS011;57757;53.198;19.646;2023-04-24T00:10:38;14.70;;;6.20;;
70337;SDS011;57757;53.198;19.646;2023-04-24T00:13:05;17.70;;;8.30;;
70337;SDS011;57757;53.198;19.646;2023-04-24T00:15:33;14.80;;;7.20;;
70337;SDS011;57757;53.198;19.646;2023-04-24T00:18:00;14.10;;;6.80;;
70337;SDS011;57757;53.198;19.646;2023-04-24T00:20:28;10.00;;;4.60;;
70337;SDS011;57757;53.198;19.646;2023-04-24T00:23:15;11.30;;;4.80;;
70337;SDS011;57757;53.198;19.646;2023-04-24T00:25:43;23.30;;;10.90;;
70337;SDS011;57757;53.198;19.646;2023-04-24T00:28:10;25.00;;;11.70;;
70337;SDS011;57757;53.198;19.646;2023-04-24T00:30:38;16.60;;;7.80;;
70337;SDS011;57757;53.198;19.646;2023-04-24T00:33:05;15.90;;;9.40;;
70337;SDS011;57757;53.198;19.646;2023-04-24T00:35:33;16.60;;;10.00;;
70337;SDS011;57757;53.198;19.646;2023-04-24T00:38:01;11.90;;;5.80;;
70337;SDS011;57757;53.198;19.646;2023-04-24T00:40:28;11.40;;;5.50;;
70337;SDS011;57757;53.198;19.646;2023-04-24T00:42:56;11.60;;;4.70;;
70337;SDS011;57757;53.198;19.646;2023-04-24T00:45:24;11.70;;;4.90;;
70337;SDS011;57757;53.198;19.646;2023-04-24T00:47:52;11.60;;;5.10;;
70337;SDS011;57757;53.198;19.646;2023-04-24T00:50:20;12.90;;;5.90;;
70337;SDS011;57757;53.198;19.646;2023-04-24T00:52:49;14.00;;;6.30;;
70337;SDS011;57757;53.198;19.646;2023-04-24T00:55:17;11.70;;;5.50;;
70337;SDS011;57757;53.198;19.646;2023-04-24T00:57:44;11.30;;;5.40;;
70337;SDS011;57757;53.198;19.646;2023-04-24T01:00:14;12.60;;;6.10;;
70337;SDS011;57757;53.198;19.646;2023-04-24T01:02:44;10.50;;;5.30;;
70337;SDS011;57757;53.198;19.646;2023-04-24T01:05:14;13.40;;;5.30;;
70337;SDS011;57757;53.198;19.646;2023-04-24T01:07:45;12.10;;;5.20;;
70337;SDS011;57757;53.198;19.646;2023-04-24T01:10:15;13.10;;;6.10;;
70337;SDS011;57757;53.198;19.646;2023-04-24T01:12:45;11.10;;;5.60;;
70337;SDS011;57757;53.198;19.646;2023-04-24T01:15:13;12.60;;;5.60;;
70337;SDS011;57757;53.198;19.646;2023-04-24T01:17:41;12.60;;;5.20;;
70337;SDS011;57757;53.198;19.646;2023-04-24T01:20:09;19.20;;;5.80;;
70337;SDS011;57757;53.198;19.646;2023-04-24T01:22:37;14.30;;;5.70;;
70337;SDS011;57757;53.198;19.646;2023-04-24T01:25:05;12.60;;;6.30;;
70337;SDS011;57757;53.198;19.646;2023-04-24T01:27:33;13.10;;;5.90;;
70337;SDS011;57757;53.198;19.646;2023-04-24T01:30:01;14.40;;;6.20;;
70337;SDS011;57757;53.198;19.646;2023-04-24T01:32:29;12.80;;;6.00;;
70337;SDS011;57757;53.198;19.646;2023-04-24T01:34:56;12.40;;;5.80;;
70337;SDS011;57757;53.198;19.646;2023-04-24T01:37:24;12.70;;;5.90;;
70337;SDS011;57757;53.198;19.646;2023-04-24T01:39:54;12.80;;;6.40;;
70337;SDS011;57757;53.198;19.646;2023-04-24T01:42:21;13.10;;;6.10;;
70337;SDS011;57757;53.198;19.646;2023-04-24T01:44:49;11.80;;;5.80;;
70337;SDS011;57757;53.198;19.646;2023-04-24T01:47:18;11.10;;;5.70;;
70337;SDS011;57757;53.198;19.646;2023-04-24T01:49:46;11.80;;;5.80;;
70337;SDS011;57757;53.198;19.646;2023-04-24T01:52:15;12.80;;;6.40;;
70337;SDS011;57757;53.198;19.646;2023-04-24T01:54:45;12.30;;;5.80;;
70337;SDS011;57757;53.198;19.646;2023-04-24T01:57:13;14.10;;;6.10;;
70337;SDS011;57757;53.198;19.646;2023-04-24T01:59:41;13.50;;;6.50;;
70337;SDS011;57757;53.198;19.646;2023-04-24T02:02:10;13.20;;;6.20;;
70337;SDS011;57757;53.198;19.646;2023-04-24T02:04:37;10.60;;;5.60;;
70337;SDS011;57757;53.198;19.646;2023-04-24T02:07:06;14.10;;;6.30;;
70337;SDS011;57757;53.198;19.646;2023-04-24T02:09:34;12.00;;;6.20;;
70337;SDS011;57757;53.198;19.646;2023-04-24T02:12:01;12.80;;;6.00;;
70337;SDS011;57757;53.198;19.646;2023-04-24T02:14:29;14.70;;;6.50;;
70337;SDS011;57757;53.198;19.646;2023-04-24T02:16:57;14.20;;;6.60;;
70337;SDS011;57757;53.198;19.646;2023-04-24T02:19:25;12.60;;;6.90;;
70337;SDS011;57757;53.198;19.646;2023-04-24T02:21:52;14.30;;;6.80;;
70337;SDS011;57757;53.198;19.646;2023-04-24T02:24:20;14.10;;;6.70;;
70337;SDS011;57757;53.198;19.646;2023-04-24T02:26:48;14.30;;;7.40;;
70337;SDS011;57757;53.198;19.646;2023-04-24T02:29:15;14.10;;;7.10;;
70337;SDS011;57757;53.198;19.646;2023-04-24T02:31:43;15.70;;;7.80;;
70337;SDS011;57757;53.198;19.646;2023-04-24T02:34:11;16.00;;;7.80;;
70337;SDS011;57757;53.198;19.646;2023-04-24T02:36:39;14.00;;;7.70;;
70337;SDS011;57757;53.198;19.646;2023-04-24T02:39:06;17.30;;;8.30;;
70337;SDS011;57757;53.198;19.646;2023-04-24T02:41:34;14.60;;;8.00;;
70337;SDS011;57757;53.198;19.646;2023-04-24T02:44:02;14.90;;;7.40;;
70337;SDS011;57757;53.198;19.646;2023-04-24T02:46:29;15.80;;;8.00;;
70337;SDS011;57757;53.198;19.646;2023-04-24T02:48:57;17.70;;;8.10;;
70337;SDS011;57757;53.198;19.646;2023-04-24T02:51:25;14.60;;;8.20;;
70337;SDS011;57757;53.198;19.646;2023-04-24T02:53:52;15.60;;;8.00;;
70337;SDS011;57757;53.198;19.646;2023-04-24T02:56:20;16.40;;;8.50;;
70337;SDS011;57757;53.198;19.646;2023-04-24T02:58:48;17.50;;;9.10;;
70337;SDS011;57757;53.198;19.646;2023-04-24T03:01:15;15.50;;;8.60;;
70337;SDS011;57757;53.198;19.646;2023-04-24T03:03:43;15.10;;;8.00;;
70337;SDS011;57757;53.198;19.646;2023-04-24T03:06:11;14.80;;;8.20;;
70337;SDS011;57757;53.198;19.646;2023-04-24T03:08:39;16.50;;;8.60;;
70337;SDS011;57757;53.198;19.646;2023-04-24T03:11:06;19.90;;;9.70;;
70337;SDS011;57757;53.198;19.646;2023-04-24T03:13:34;38.90;;;12.40;;
70337;SDS011;57757;53.198;19.646;2023-04-24T03:16:02;20.40;;;9.00;;
70337;SDS011;57757;53.198;19.646;2023-04-24T03:18:29;17.00;;;8.70;;
70337;SDS011;57757;53.198;19.646;2023-04-24T03:20:57;16.60;;;8.70;;
70337;SDS011;57757;53.198;19.646;2023-04-24T03:23:25;17.70;;;8.80;;
70337;SDS011;57757;53.198;19.646;2023-04-24T03:25:53;16.00;;;8.10;;
70337;SDS011;57757;53.198;19.646;2023-04-24T03:28:21;16.20;;;8.00;;
70337;SDS011;57757;53.198;19.646;2023-04-24T03:30:49;15.30;;;7.90;;
70337;SDS011;57757;53.198;19.646;2023-04-24T03:33:17;18.10;;;8.30;;
70337;SDS011;57757;53.198;19.646;2023-04-24T03:35:44;15.60;;;8.40;;
70337;SDS011;57757;53.198;19.646;2023-04-24T03:38:12;16.60;;;7.50;;
70337;SDS011;57757;53.198;19.646;2023-04-24T03:40:39;20.40;;;8.10;;
70337;SDS011;57757;53.198;19.646;2023-04-24T03:43:07;20.60;;;8.20;;
70337;SDS011;57757;53.198;19.646;2023-04-24T03:45:35;19.70;;;9.30;;
70337;SDS011;57757;53.198;19.646;2023-04-24T03:48:02;21.20;;;10.00;;
70337;SDS011;57757;53.198;19.646;2023-04-24T03:50:30;21.30;;;10.80;;
70337;SDS011;57757;53.198;19.646;2023-04-24T03:52:58;18.90;;;9.10;;
70337;SDS011;57757;53.198;19.646;2023-04-24T03:55:26;17.30;;;8.40;;
70337;SDS011;57757;53.198;19.646;2023-04-24T03:57:53;14.80;;;8.20;;
70337;SDS011;57757;53.198;19.646;2023-04-24T04:00:21;16.00;;;8.20;;
70337;SDS011;57757;53.198;19.646;2023-04-24T04:02:49;19.80;;;8.60;;
70337;SDS011;57757;53.198;19.646;2023-04-24T04:05:17;16.20;;;8.50;;
70337;SDS011;57757;53.198;19.646;2023-04-24T04:07:45;19.60;;;9.20;;
70337;SDS011;57757;53.198;19.646;2023-04-24T04:10:12;17.20;;;8.80;;
70337;SDS011;57757;53.198;19.646;2023-04-24T04:12:40;22.20;;;9.20;;
70337;SDS011;57757;53.198;19.646;2023-04-24T04:15:08;15.90;;;7.40;;
70337;SDS011;57757;53.198;19.646;2023-04-24T04:17:35;18.90;;;8.20;;
70337;SDS011;57757;53.198;19.646;2023-04-24T04:20:05;16.30;;;7.50;;
70337;SDS011;57757;53.198;19.646;2023-04-24T04:22:40;13.50;;;7.30;;
70337;SDS011;57757;53.198;19.646;2023-04-24T04:25:11;15.60;;;8.00;;
70337;SDS011;57757;53.198;19.646;2023-04-24T04:27:41;17.00;;;8.20;;
70337;SDS011;57757;53.198;19.646;2023-04-24T04:30:08;16.30;;;8.80;;
70337;SDS011;57757;53.198;19.646;2023-04-24T04:32:37;15.60;;;8.40;;
70337;SDS011;57757;53.198;19.646;2023-04-24T04:35:05;17.50;;;7.80;;
70337;SDS011;57757;53.198;19.646;2023-04-24T04:37:33;15.10;;;8.50;;
70337;SDS011;57757;53.198;19.646;2023-04-24T04:40:01;17.40;;;8.50;;
70337;SDS011;57757;53.198;19.646;2023-04-24T04:42:38;16.10;;;8.80;;
70337;SDS011;57757;53.198;19.646;2023-04-24T04:45:09;15.60;;;8.00;;
70337;SDS011;57757;53.198;19.646;2023-04-24T04:47:40;12.40;;;6.80;;
70337;SDS011;57757;53.198;19.646;2023-04-24T04:50:08;11.40;;;6.60;;
70337;SDS011;57757;53.198;19.646;2023-04-24T04:52:37;13.60;;;6.60;;
70337;SDS011;57757;53.198;19.646;2023-04-24T04:55:04;11.90;;;5.70;;
70337;SDS011;57757;53.198;19.646;2023-04-24T04:57:32;12.90;;;5.50;;
70337;SDS011;57757;53.198;19.646;2023-04-24T05:00:00;12.20;;;5.60;;
70337;SDS011;57757;53.198;19.646;2023-04-24T05:02:28;13.10;;;6.20;;
70337;SDS011;57757;53.198;19.646;2023-04-24T05:04:56;13.00;;;4.80;;
70337;SDS011;57757;53.198;19.646;2023-04-24T05:07:24;10.40;;;4.50;;
70337;SDS011;57757;53.198;19.646;2023-04-24T05:09:51;9.20;;;3.80;;
70337;SDS011;57757;53.198;19.646;2023-04-24T05:12:19;12.40;;;4.60;;
70337;SDS011;57757;53.198;19.646;2023-04-24T05:14:47;12.30;;;4.40;;
70337;SDS011;57757;53.198;19.646;2023-04-24T05:17:15;10.00;;;4.20;;
70337;SDS011;57757;53.198;19.646;2023-04-24T05:19:43;11.10;;;4.40;;
70337;SDS011;57757;53.198;19.646;2023-04-24T05:22:13;10.50;;;4.00;;
70337;SDS011;57757;53.198;19.646;2023-04-24T05:24:40;10.50;;;4.70;;
70337;SDS011;57757;53.198;19.646;2023-04-24T05:27:08;10.60;;;4.20;;
70337;SDS011;57757;53.198;19.646;2023-04-24T05:29:36;9.70;;;3.80;;
70337;SDS011;57757;53.198;19.646;2023-04-24T05:32:04;9.20;;;3.70;;
70337;SDS011;57757;53.198;19.646;2023-04-24T05:34:32;8.10;;;3.80;;
70337;SDS011;57757;53.198;19.646;2023-04-24T05:37:03;11.10;;;4.50;;
70337;SDS011;57757;53.198;19.646;2023-04-24T05:39:37;11.40;;;4.90;;
70337;SDS011;57757;53.198;19.646;2023-04-24T05:42:05;8.60;;;3.30;;
70337;SDS011;57757;53.198;19.646;2023-04-24T05:44:33;7.70;;;3.30;;
70337;SDS011;57757;53.198;19.646;2023-04-24T05:47:02;7.90;;;3.20;;
70337;SDS011;57757;53.198;19.646;2023-04-24T05:49:39;8.40;;;3.50;;
70337;SDS011;57757;53.198;19.646;2023-04-24T05:52:07;7.20;;;2.90;;
70337;SDS011;57757;53.198;19.646;2023-04-24T05:54:36;7.70;;;2.80;;
70337;SDS011;57757;53.198;19.646;2023-04-24T05:57:06;9.00;;;3.10;;
70337;SDS011;57757;53.198;19.646;2023-04-24T05:59:38;8.40;;;3.40;;
70337;SDS011;57757;53.198;19.646;2023-04-24T06:02:05;7.70;;;2.90;;
70337;SDS011;57757;53.198;19.646;2023-04-24T06:04:34;7.50;;;3.20;;
70337;SDS011;57757;53.198;19.646;2023-04-24T06:07:03;7.70;;;3.20;;
70337;SDS011;57757;53.198;19.646;2023-04-24T06:09:31;8.70;;;2.90;;
70337;SDS011;57757;53.198;19.646;2023-04-24T06:11:59;8.40;;;3.40;;
70337;SDS011;57757;53.198;19.646;2023-04-24T06:14:27;8.20;;;2.90;;
70337;SDS011;57757;53.198;19.646;2023-04-24T06:16:56;9.20;;;3.70;;
70337;SDS011;57757;53.198;19.646;2023-04-24T06:19:24;7.80;;;3.00;;
70337;SDS011;57757;53.198;19.646;2023-04-24T06:21:55;9.10;;;3.10;;
70337;SDS011;57757;53.198;19.646;2023-04-24T06:24:27;7.60;;;2.80;;
70337;SDS011;57757;53.198;19.646;2023-04-24T06:26:56;9.20;;;3.20;;
70337;SDS011;57757;53.198;19.646;2023-04-24T06:29:26;7.00;;;3.00;;
70337;SDS011;57757;53.198;19.646;2023-04-24T06:31:54;8.60;;;2.90;;
70337;SDS011;57757;53.198;19.646;2023-04-24T06:34:22;8.30;;;3.50;;
70337;SDS011;57757;53.198;19.646;2023-04-24T06:36:50;8.00;;;3.70;;
70337;SDS011;57757;53.198;19.646;2023-04-24T06:39:18;7.60;;;2.80;;
70337;SDS011;57757;53.198;19.646;2023-04-24T06:41:49;7.10;;;3.10;;
70337;SDS011;57757;53.198;19.646;2023-04-24T06:44:17;8.30;;;2.80;;
70337;SDS011;57757;53.198;19.646;2023-04-24T06:46:45;7.20;;;3.00;;
70337;SDS011;57757;53.198;19.646;2023-04-24T06:49:13;7.40;;;2.90;;
70337;SDS011;57757;53.198;19.646;2023-04-24T06:51:43;8.40;;;3.40;;
70337;SDS011;57757;53.198;19.646;2023-04-24T06:54:11;11.20;;;4.90;;
70337;SDS011;57757;53.198;19.646;2023-04-24T06:56:38;11.50;;;4.20;;
70337;SDS011;57757;53.198;19.646;2023-04-24T06:59:09;12.30;;;4.90;;
70337;SDS011;57757;53.198;19.646;2023-04-24T07:01:36;9.10;;;3.50;;
70337;SDS011;57757;53.198;19.646;2023-04-24T07:04:04;6.40;;;3.00;;
70337;SDS011;57757;53.198;19.646;2023-04-24T07:06:34;6.90;;;3.10;;
70337;SDS011;57757;53.198;19.646;2023-04-24T07:09:07;7.20;;;3.10;;
70337;SDS011;57757;53.198;19.646;2023-04-24T07:11:37;11.20;;;4.60;;
70337;SDS011;57757;53.198;19.646;2023-04-24T07:14:07;10.00;;;5.00;;
70337;SDS011;57757;53.198;19.646;2023-04-24T07:16:40;7.20;;;2.90;;
70337;SDS011;57757;53.198;19.646;2023-04-24T07:19:12;6.50;;;2.80;;
70337;SDS011;57757;53.198;19.646;2023-04-24T07:21:45;7.70;;;3.20;;
70337;SDS011;57757;53.198;19.646;2023-04-24T07:24:14;7.20;;;3.00;;
70337;SDS011;57757;53.198;19.646;2023-04-24T07:26:49;6.90;;;2.90;;
70337;SDS011;57757;53.198;19.646;2023-04-24T07:29:29;7.20;;;3.20;;
70337;SDS011;57757;53.198;19.646;2023-04-24T07:31:57;7.60;;;3.30;;
70337;SDS011;57757;53.198;19.646;2023-04-24T07:34:28;7.80;;;3.00;;
70337;SDS011;57757;53.198;19.646;2023-04-24T07:36:58;6.90;;;3.10;;
70337;SDS011;57757;53.198;19.646;2023-04-24T07:39:26;9.10;;;3.60;;
70337;SDS011;57757;53.198;19.646;2023-04-24T07:41:55;8.90;;;3.40;;
70337;SDS011;57757;53.198;19.646;2023-04-24T07:44:27;8.60;;;3.90;;
70337;SDS011;57757;53.198;19.646;2023-04-24T07:46:58;8.80;;;4.40;;
70337;SDS011;57757;53.198;19.646;2023-04-24T07:49:30;17.70;;;10.80;;
70337;SDS011;57757;53.198;19.646;2023-04-24T07:51:58;17.30;;;10.10;;
70337;SDS011;57757;53.198;19.646;2023-04-24T07:54:28;33.00;;;21.40;;
70337;SDS011;57757;53.198;19.646;2023-04-24T07:56:58;13.10;;;6.60;;
70337;SDS011;57757;53.198;19.646;2023-04-24T07:59:25;11.00;;;5.80;;
70337;SDS011;57757;53.198;19.646;2023-04-24T08:01:53;16.30;;;10.00;;
70337;SDS011;57757;53.198;19.646;2023-04-24T08:04:21;17.60;;;9.60;;
70337;SDS011;57757;53.198;19.646;2023-04-24T08:06:49;21.30;;;9.70;;
70337;SDS011;57757;53.198;19.646;2023-04-24T08:09:17;10.50;;;6.00;;
70337;SDS011;57757;53.198;19.646;2023-04-24T08:11:45;11.20;;;5.90;;
70337;SDS011;57757;53.198;19.646;2023-04-24T08:14:12;10.50;;;6.20;;
70337;SDS011;57757;53.198;19.646;2023-04-24T08:16:41;12.80;;;7.30;;
70337;SDS011;57757;53.198;19.646;2023-04-24T08:19:09;13.10;;;6.50;;
70337;SDS011;57757;53.198;19.646;2023-04-24T08:21:37;16.90;;;8.90;;
70337;SDS011;57757;53.198;19.646;2023-04-24T08:24:04;12.00;;;8.00;;
70337;SDS011;57757;53.198;19.646;2023-04-24T08:26:35;15.20;;;6.10;;
70337;SDS011;57757;53.198;19.646;2023-04-24T08:29:02;10.20;;;5.70;;
70337;SDS011;57757;53.198;19.646;2023-04-24T08:31:34;16.60;;;8.10;;
70337;SDS011;57757;53.198;19.646;2023-04-24T08:34:03;11.60;;;6.30;;
70337;SDS011;57757;53.198;19.646;2023-04-24T08:36:34;11.50;;;6.20;;
70337;SDS011;57757;53.198;19.646;2023-04-24T08:39:14;11.10;;;5.80;;
70337;SDS011;57757;53.198;19.646;2023-04-24T08:41:43;13.30;;;6.40;;
70337;SDS011;57757;53.198;19.646;2023-04-24T08:44:13;15.50;;;10.30;;
70337;SDS011;57757;53.198;19.646;2023-04-24T08:46:43;13.30;;;6.80;;
70337;SDS011;57757;53.198;19.646;2023-04-24T08:49:13;10.40;;;5.40;;
70337;SDS011;57757;53.198;19.646;2023-04-24T08:51:45;9.30;;;4.90;;
70337;SDS011;57757;53.198;19.646;2023-04-24T08:54:16;10.70;;;5.30;;
70337;SDS011;57757;53.198;19.646;2023-04-24T08:56:45;9.40;;;5.60;;
70337;SDS011;57757;53.198;19.646;2023-04-24T08:59:15;13.40;;;6.60;;
70337;SDS011;57757;53.198;19.646;2023-04-24T09:01:46;11.10;;;5.40;;
70337;SDS011;57757;53.198;19.646;2023-04-24T09:04:15;12.70;;;5.90;;
70337;SDS011;57757;53.198;19.646;2023-04-24T09:06:51;9.20;;;4.90;;
70337;SDS011;57757;53.198;19.646;2023-04-24T09:09:22;9.60;;;4.70;;
70337;SDS011;57757;53.198;19.646;2023-04-24T09:11:57;9.50;;;4.80;;
70337;SDS011;57757;53.198;19.646;2023-04-24T09:14:26;10.50;;;4.80;;
70337;SDS011;57757;53.198;19.646;2023-04-24T09:16:55;12.30;;;5.50;;
70337;SDS011;57757;53.198;19.646;2023-04-24T09:19:23;9.30;;;5.00;;
70337;SDS011;57757;53.198;19.646;2023-04-24T09:21:50;9.20;;;5.40;;
70337;SDS011;57757;53.198;19.646;2023-04-24T09:24:21;12.90;;;5.20;;
70337;SDS011;57757;53.198;19.646;2023-04-24T09:26:56;9.50;;;4.80;;
70337;SDS011;57757;53.198;19.646;2023-04-24T09:29:26;10.20;;;5.80;;
70337;SDS011;57757;53.198;19.646;2023-04-24T09:31:55;10.70;;;6.40;;
70337;SDS011;57757;53.198;19.646;2023-04-24T09:34:24;10.50;;;5.80;;
70337;SDS011;57757;53.198;19.646;2023-04-24T09:36:54;9.20;;;5.20;;
70337;SDS011;57757;53.198;19.646;2023-04-24T09:39:23;8.00;;;4.60;;
70337;SDS011;57757;53.198;19.646;2023-04-24T09:41:55;10.30;;;4.30;;
70337;SDS011;57757;53.198;19.646;2023-04-24T09:44:28;9.20;;;4.00;;
70337;SDS011;57757;53.198;19.646;2023-04-24T09:46:57;7.70;;;3.80;;
70337;SDS011;57757;53.198;19.646;2023-04-24T09:49:26;10.20;;;4.10;;
70337;SDS011;57757;53.198;19.646;2023-04-24T09:52:02;8.30;;;3.70;;
70337;SDS011;57757;53.198;19.646;2023-04-24T09:54:34;9.60;;;3.80;;
70337;SDS011;57757;53.198;19.646;2023-04-24T09:57:04;11.50;;;4.80;;
70337;SDS011;57757;53.198;19.646;2023-04-24T09:59:34;9.80;;;5.30;;
70337;SDS011;57757;53.198;19.646;2023-04-24T10:02:16;8.70;;;5.40;;
70337;SDS011;57757;53.198;19.646;2023-04-24T10:07:29;9.90;;;4.40;;
70337;SDS011;57757;53.198;19.646;2023-04-24T10:10:00;9.10;;;4.30;;
70337;SDS011;57757;53.198;19.646;2023-04-24T10:12:28;9.90;;;4.50;;
70337;SDS011;57757;53.198;19.646;2023-04-24T10:14:58;10.50;;;5.10;;
70337;SDS011;57757;53.198;19.646;2023-04-24T10:17:26;8.60;;;4.10;;
70337;SDS011;57757;53.198;19.646;2023-04-24T10:19:56;10.00;;;4.00;;
70337;SDS011;57757;53.198;19.646;2023-04-24T10:22:26;8.20;;;3.80;;
70337;SDS011;57757;53.198;19.646;2023-04-24T10:24:58;8.30;;;4.00;;
70337;SDS011;57757;53.198;19.646;2023-04-24T10:27:27;8.10;;;3.70;;
70337;SDS011;57757;53.198;19.646;2023-04-24T10:29:57;17.00;;;4.20;;
70337;SDS011;57757;53.198;19.646;2023-04-24T10:32:26;8.20;;;3.60;;
70337;SDS011;57757;53.198;19.646;2023-04-24T10:34:54;8.80;;;3.70;;
70337;SDS011;57757;53.198;19.646;2023-04-24T10:37:25;8.50;;;3.80;;
70337;SDS011;57757;53.198;19.646;2023-04-24T10:39:55;10.40;;;3.90;;
70337;SDS011;57757;53.198;19.646;2023-04-24T10:42:24;7.10;;;3.50;;
70337;SDS011;57757;53.198;19.646;2023-04-24T10:45:05;10.40;;;3.80;;
70337;SDS011;57757;53.198;19.646;2023-04-24T10:47:40;7.80;;;4.00;;
70337;SDS011;57757;53.198;19.646;2023-04-24T10:50:10;9.90;;;4.00;;
70337;SDS011;57757;53.198;19.646;2023-04-24T10:52:45;7.90;;;3.90;;
70337;SDS011;57757;53.198;19.646;2023-04-24T10:55:14;8.60;;;3.40;;
70337;SDS011;57757;53.198;19.646;2023-04-24T10:58:00;8.50;;;3.90;;
70337;SDS011;57757;53.198;19.646;2023-04-24T11:00:31;6.40;;;3.20;;
70337;SDS011;57757;53.198;19.646;2023-04-24T11:03:03;7.10;;;3.70;;
70337;SDS011;57757;53.198;19.646;2023-04-24T11:08:26;7.70;;;3.70;;
70337;SDS011;57757;53.198;19.646;2023-04-24T11:10:57;7.40;;;3.80;;
70337;SDS011;57757;53.198;19.646;2023-04-24T11:13:29;7.80;;;3.90;;
70337;SDS011;57757;53.198;19.646;2023-04-24T11:16:37;8.00;;;3.40;;
70337;SDS011;57757;53.198;19.646;2023-04-24T11:27:15;7.00;;;3.70;;
70337;SDS011;57757;53.198;19.646;2023-04-24T11:35:18;8.80;;;4.00;;
70337;SDS011;57757;53.198;19.646;2023-04-24T11:37:49;9.10;;;5.60;;
70337;SDS011;57757;53.198;19.646;2023-04-24T11:40:23;16.20;;;5.40;;
70337;SDS011;57757;53.198;19.646;2023-04-24T11:42:51;7.30;;;3.80;;
70337;SDS011;57757;53.198;19.646;2023-04-24T11:45:23;8.50;;;3.90;;
70337;SDS011;57757;53.198;19.646;2023-04-24T11:47:53;8.40;;;3.70;;
70337;SDS011;57757;53.198;19.646;2023-04-24T11:50:22;6.90;;;3.60;;
70337;SDS011;57757;53.198;19.646;2023-04-24T11:52:56;8.00;;;3.80;;
70337;SDS011;57757;53.198;19.646;2023-04-24T11:55:26;7.70;;;3.70;;
70337;SDS011;57757;53.198;19.646;2023-04-24T11:57:56;12.70;;;4.20;;
70337;SDS011;57757;53.198;19.646;2023-04-24T12:00:27;9.70;;;4.30;;
70337;SDS011;57757;53.198;19.646;2023-04-24T12:05:41;9.30;;;3.80;;
70337;SDS011;57757;53.198;19.646;2023-04-24T12:08:09;8.20;;;3.60;;
70337;SDS011;57757;53.198;19.646;2023-04-24T12:10:37;9.00;;;4.20;;
70337;SDS011;57757;53.198;19.646;2023-04-24T12:13:04;9.40;;;3.40;;
70337;SDS011;57757;53.198;19.646;2023-04-24T12:15:32;11.00;;;4.10;;
70337;SDS011;57757;53.198;19.646;2023-04-24T12:18:00;6.50;;;3.50;;
70337;SDS011;57757;53.198;19.646;2023-04-24T12:20:30;8.40;;;3.50;;
70337;SDS011;57757;53.198;19.646;2023-04-24T12:23:00;10.60;;;3.50;;
70337;SDS011;57757;53.198;19.646;2023-04-24T12:25:29;8.10;;;3.20;;
70337;SDS011;57757;53.198;19.646;2023-04-24T12:30:34;9.70;;;4.10;;
70337;SDS011;57757;53.198;19.646;2023-04-24T12:33:05;7.30;;;3.60;;
70337;SDS011;57757;53.198;19.646;2023-04-24T12:35:33;8.70;;;3.80;;
70337;SDS011;57757;53.198;19.646;2023-04-24T12:38:06;8.30;;;3.10;;
70337;SDS011;57757;53.198;19.646;2023-04-24T12:40:35;8.70;;;3.40;;
70337;SDS011;57757;53.198;19.646;2023-04-24T12:43:12;12.30;;;4.10;;
70337;SDS011;57757;53.198;19.646;2023-04-24T12:45:47;9.60;;;3.70;;
70337;SDS011;57757;53.198;19.646;2023-04-24T12:48:15;9.90;;;4.00;;
70337;SDS011;57757;53.198;19.646;2023-04-24T12:50:43;7.60;;;3.90;;
70337;SDS011;57757;53.198;19.646;2023-04-24T12:53:14;7.20;;;3.80;;
70337;SDS011;57757;53.198;19.646;2023-04-24T12:55:43;9.50;;;4.10;;
70337;SDS011;57757;53.198;19.646;2023-04-24T12:58:13;9.20;;;4.00;;
70337;SDS011;57757;53.198;19.646;2023-04-24T13:00:40;7.80;;;3.60;;
70337;SDS011;57757;53.198;19.646;2023-04-24T13:03:11;11.10;;;4.10;;
70337;SDS011;57757;53.198;19.646;2023-04-24T13:05:42;8.10;;;3.70;;
70337;SDS011;57757;53.198;19.646;2023-04-24T13:08:11;8.00;;;3.70;;
70337;SDS011;57757;53.198;19.646;2023-04-24T13:10:40;10.90;;;4.00;;
70337;SDS011;57757;53.198;19.646;2023-04-24T13:13:08;9.70;;;4.80;;
70337;SDS011;57757;53.198;19.646;2023-04-24T13:15:36;7.80;;;4.00;;
70337;SDS011;57757;53.198;19.646;2023-04-24T13:18:03;14.90;;;5.00;;
70337;SDS011;57757;53.198;19.646;2023-04-24T13:20:32;11.60;;;4.80;;
70337;SDS011;57757;53.198;19.646;2023-04-24T13:22:59;8.80;;;4.80;;
70337;SDS011;57757;53.198;19.646;2023-04-24T13:25:30;7.40;;;3.80;;
70337;SDS011;57757;53.198;19.646;2023-04-24T13:28:06;9.30;;;5.20;;
70337;SDS011;57757;53.198;19.646;2023-04-24T13:30:37;10.70;;;4.80;;
70337;SDS011;57757;53.198;19.646;2023-04-24T13:33:04;8.90;;;4.10;;
70337;SDS011;57757;53.198;19.646;2023-04-24T13:35:32;10.60;;;3.90;;
70337;SDS011;57757;53.198;19.646;2023-04-24T13:38:00;7.90;;;4.20;;
70337;SDS011;57757;53.198;19.646;2023-04-24T13:40:28;8.70;;;3.80;;
70337;SDS011;57757;53.198;19.646;2023-04-24T13:42:56;12.50;;;5.80;;
70337;SDS011;57757;53.198;19.646;2023-04-24T13:45:23;11.90;;;6.70;;
70337;SDS011;57757;53.198;19.646;2023-04-24T13:47:52;17.70;;;6.50;;
70337;SDS011;57757;53.198;19.646;2023-04-24T13:50:24;17.10;;;7.20;;
70337;SDS011;57757;53.198;19.646;2023-04-24T13:52:52;16.70;;;6.90;;
70337;SDS011;57757;53.198;19.646;2023-04-24T13:55:21;11.20;;;4.90;;
70337;SDS011;57757;53.198;19.646;2023-04-24T13:57:49;13.90;;;5.30;;
70337;SDS011;57757;53.198;19.646;2023-04-24T14:00:17;9.20;;;3.80;;
70337;SDS011;57757;53.198;19.646;2023-04-24T14:02:45;8.60;;;4.10;;
70337;SDS011;57757;53.198;19.646;2023-04-24T14:05:13;9.40;;;4.10;;
70337;SDS011;57757;53.198;19.646;2023-04-24T14:07:42;7.70;;;4.40;;
70337;SDS011;57757;53.198;19.646;2023-04-24T14:10:10;9.20;;;4.20;;
70337;SDS011;57757;53.198;19.646;2023-04-24T14:12:37;13.20;;;4.10;;
70337;SDS011;57757;53.198;19.646;2023-04-24T14:15:05;7.40;;;3.70;;
70337;SDS011;57757;53.198;19.646;2023-04-24T14:17:33;8.60;;;3.90;;
70337;SDS011;57757;53.198;19.646;2023-04-24T14:20:01;7.60;;;3.70;;
70337;SDS011;57757;53.198;19.646;2023-04-24T14:22:29;10.10;;;3.70;;
70337;SDS011;57757;53.198;19.646;2023-04-24T14:24:56;9.10;;;3.70;;
70337;SDS011;57757;53.198;19.646;2023-04-24T14:27:25;7.90;;;4.00;;
70337;SDS011;57757;53.198;19.646;2023-04-24T14:29:53;9.30;;;4.00;;
70337;SDS011;57757;53.198;19.646;2023-04-24T14:32:22;9.50;;;4.40;;
70337;SDS011;57757;53.198;19.646;2023-04-24T14:34:50;9.60;;;5.70;;
70337;SDS011;57757;53.198;19.646;2023-04-24T14:37:20;9.90;;;6.30;;
70337;SDS011;57757;53.198;19.646;2023-04-24T14:39:48;17.10;;;7.50;;
70337;SDS011;57757;53.198;19.646;2023-04-24T14:42:36;17.80;;;7.50;;
70337;SDS011;57757;53.198;19.646;2023-04-24T14:45:03;12.90;;;5.50;;
70337;SDS011;57757;53.198;19.646;2023-04-24T14:47:31;11.00;;;5.40;;
70337;SDS011;57757;53.198;19.646;2023-04-24T14:49:59;10.30;;;5.50;;
70337;SDS011;57757;53.198;19.646;2023-04-24T14:52:27;10.00;;;5.00;;
70337;SDS011;57757;53.198;19.646;2023-04-24T14:54:54;10.90;;;5.20;;
70337;SDS011;57757;53.198;19.646;2023-04-24T14:57:22;8.70;;;4.70;;
70337;SDS011;57757;53.198;19.646;2023-04-24T14:59:50;10.60;;;5.30;;
70337;SDS011;57757;53.198;19.646;2023-04-24T15:02:18;11.50;;;6.00;;